createdAt,value
2023-03-06T00:04:17.215Z,29.02
2023-03-06T00:09:18.664Z,30.73
2023-03-06T00:14:20.180Z,28.30
2023-03-06T00:19:23.277Z,28.33
2023-03-06T00:24:24.824Z,32.10
2023-03-06T00:29:26.272Z,34.20
2023-03-06T00:34:27.832Z,37.50
2023-03-06T00:39:29.346Z,34.08
2023-03-06T00:44:30.813Z,28.55
2023-03-06T00:49:32.298Z,26.98
2023-03-06T00:54:33.765Z,32.13
2023-03-06T00:59:35.465Z,31.02
2023-03-06T01:04:36.956Z,34.75
2023-03-06T01:09:39.127Z,26.48
2023-03-06T01:14:40.745Z,29.45
2023-03-06T01:19:44.345Z,32.30
2023-03-06T01:24:49.570Z,31.50
2023-03-06T01:29:51.114Z,28.45
2023-03-06T01:34:52.747Z,27.15
2023-03-06T01:39:54.240Z,30.92
2023-03-06T01:45:27.879Z,27.67
2023-03-06T01:50:29.492Z,27.17
2023-03-06T01:55:34.029Z,29.77
2023-03-06T02:00:35.519Z,29.65
2023-03-06T02:05:37.814Z,28.48
2023-03-06T02:10:43.830Z,25.40
2023-03-06T02:15:45.330Z,25.83
2023-03-06T02:20:58.762Z,23.70
2023-03-06T02:26:02.094Z,30.38
2023-03-06T02:31:03.869Z,24.65
2023-03-06T02:36:07.364Z,28.88
2023-03-06T02:41:09.011Z,26.55
2023-03-06T02:46:10.640Z,28.80
2023-03-06T02:51:12.185Z,30.30
2023-03-06T02:56:13.721Z,28.85
2023-03-06T03:01:16.646Z,28.77
2023-03-06T03:06:18.482Z,26.75
2023-03-06T03:11:20.343Z,27.10
2023-03-06T03:16:22.289Z,29.73
2023-03-06T03:21:23.862Z,28.10
2023-03-06T03:26:27.888Z,30.70
2023-03-06T03:31:36.066Z,29.20
2023-03-06T03:36:38.690Z,30.98
2023-03-06T03:41:42.673Z,31.92
2023-03-06T03:46:45.388Z,31.20
2023-03-06T03:51:51.909Z,30.35
2023-03-06T03:56:54.890Z,28.38
2023-03-06T04:02:01.102Z,27.02
2023-03-06T04:07:03.098Z,30.67
2023-03-06T04:12:05.523Z,24.67
2023-03-06T04:17:09.011Z,30.25
2023-03-06T04:22:10.651Z,27.58
2023-03-06T04:27:14.024Z,24.90
2023-03-06T04:32:16.271Z,28.30
2023-03-06T04:37:23.736Z,30.40
2023-03-06T04:42:26.967Z,27.52
2023-03-06T04:47:28.475Z,26.08
2023-03-06T04:52:29.928Z,23.92
2023-03-06T04:57:31.376Z,31.45
2023-03-06T05:02:33.510Z,25.17
2023-03-06T05:07:35.047Z,28.83
2023-03-06T05:12:37.378Z,24.60
2023-03-06T05:17:39.038Z,28.58
2023-03-06T05:22:41.039Z,30.80
2023-03-06T05:27:42.857Z,27.75
2023-03-06T05:32:44.622Z,26.70
2023-03-06T05:37:46.551Z,27.00
2023-03-06T05:42:48.293Z,30.33
2023-03-06T05:47:49.816Z,33.83
2023-03-06T05:52:51.315Z,26.02
2023-03-06T05:57:53.711Z,30.90
2023-03-06T06:02:55.223Z,30.30
2023-03-06T06:07:56.696Z,27.58
2023-03-06T06:12:58.218Z,35.22
2023-03-06T06:17:59.838Z,29.42
2023-03-06T06:23:01.421Z,28.10
2023-03-06T06:28:03.240Z,29.35
2023-03-06T06:33:04.705Z,32.22
2023-03-06T06:38:06.208Z,31.05
2023-03-06T06:43:07.891Z,31.08
2023-03-06T06:48:10.444Z,28.75
2023-03-06T06:53:11.960Z,34.67
2023-03-06T06:58:14.600Z,29.60
2023-03-06T07:03:16.128Z,35.13
2023-03-06T07:08:17.585Z,30.48
2023-03-06T07:13:19.109Z,34.28
2023-03-06T07:18:20.536Z,33.65
2023-03-06T07:23:22.089Z,38.78
2023-03-06T07:28:23.991Z,29.50
2023-03-06T07:33:25.491Z,31.55
2023-03-06T07:38:27.149Z,34.38
2023-03-06T07:43:28.667Z,36.05
2023-03-06T07:48:37.389Z,27.92
2023-03-06T07:53:38.962Z,28.17
2023-03-06T07:58:42.915Z,30.10
2023-03-06T08:03:44.560Z,24.17
2023-03-06T08:08:47.395Z,23.48
2023-03-06T08:13:49.200Z,27.42
2023-03-06T08:18:50.860Z,22.17
2023-03-06T08:23:52.963Z,21.95
2023-03-06T08:28:56.610Z,20.45
2023-03-06T08:34:00.869Z,18.05
2023-03-06T08:39:03.322Z,21.90
2023-03-06T08:44:05.263Z,16.88
2023-03-06T08:49:06.994Z,18.52
2023-03-06T08:54:12.020Z,16.67
2023-03-06T08:59:13.857Z,16.70
2023-03-06T09:04:15.316Z,18.50
2023-03-06T09:09:16.856Z,14.18
2023-03-06T09:14:18.366Z,16.25
2023-03-06T09:19:22.654Z,15.00
2023-03-06T09:24:24.114Z,19.20
2023-03-06T09:29:25.679Z,15.55
2023-03-06T09:34:27.134Z,12.70
2023-03-06T09:39:28.691Z,15.30
2023-03-06T09:44:34.320Z,14.35
2023-03-06T09:49:47.608Z,13.38
2023-03-06T09:55:24.216Z,12.93
2023-03-06T10:00:52.593Z,12.90
2023-03-06T10:06:00.876Z,12.43
2023-03-06T10:11:09.030Z,12.43
2023-03-06T10:16:30.132Z,15.30
2023-03-06T10:21:50.138Z,11.52
2023-03-06T10:27:29.781Z,12.32
2023-03-06T10:32:48.303Z,13.27
2023-03-06T10:37:51.327Z,11.13
2023-03-06T10:43:09.342Z,11.60
2023-03-06T10:48:19.447Z,15.20
2023-03-06T10:53:27.349Z,14.02
2023-03-06T10:58:31.282Z,15.02
2023-03-06T11:03:34.332Z,16.92
2023-03-06T11:08:36.384Z,11.93
2023-03-06T11:13:40.730Z,14.23
2023-03-06T11:18:54.328Z,16.98
2023-03-06T11:24:02.243Z,12.20
2023-03-06T11:29:24.999Z,16.35
2023-03-06T11:34:59.721Z,14.95
2023-03-06T11:40:13.469Z,14.07
2023-03-06T11:45:36.002Z,13.82
2023-03-06T11:50:40.535Z,13.23
2023-03-06T11:55:47.848Z,13.07
2023-03-06T12:01:02.279Z,13.60
2023-03-06T12:06:14.074Z,14.45
2023-03-06T12:11:22.987Z,12.93
2023-03-06T12:16:53.017Z,12.47
2023-03-06T12:22:01.837Z,13.65
2023-03-06T12:27:27.621Z,13.13
2023-03-06T12:32:51.541Z,14.10
2023-03-06T12:38:11.615Z,16.80
2023-03-06T12:43:28.017Z,14.88
2023-03-06T12:48:36.250Z,15.02
2023-03-06T12:53:39.561Z,13.60
2023-03-06T12:58:54.953Z,14.60
2023-03-06T13:04:25.690Z,14.00
2023-03-06T13:09:45.816Z,15.20
2023-03-06T13:20:14.363Z,14.35
2023-03-06T13:25:18.890Z,14.35
2023-03-06T13:30:20.375Z,10.95
2023-03-06T13:35:30.893Z,12.10
2023-03-06T13:40:34.435Z,11.70
2023-03-06T13:45:40.962Z,10.98
2023-03-06T13:50:44.868Z,10.52
2023-03-06T13:55:52.422Z,10.90
2023-03-06T14:01:04.495Z,11.95
2023-03-06T14:07:01.832Z,13.85
2023-03-06T14:12:15.332Z,12.95
2023-03-06T14:17:32.978Z,11.77
2023-03-06T14:22:34.416Z,13.25
2023-03-06T14:27:49.764Z,12.02
2023-03-06T14:32:54.545Z,10.35
2023-03-06T14:38:02.349Z,13.50
2023-03-06T14:43:33.462Z,10.82
2023-03-06T14:48:44.664Z,9.93
2023-03-06T14:53:48.732Z,10.57
2023-03-06T14:58:56.117Z,12.27
2023-03-06T15:04:00.295Z,12.10
2023-03-06T15:09:27.892Z,9.65
2023-03-06T15:14:41.233Z,12.82
2023-03-06T15:19:43.638Z,14.40
2023-03-06T15:24:45.209Z,13.82
2023-03-06T15:29:46.764Z,11.55
2023-03-06T15:35:08.247Z,9.30
2023-03-06T15:40:18.304Z,10.27
2023-03-06T15:45:25.282Z,12.85
2023-03-06T15:50:29.114Z,11.73
2023-03-06T15:55:32.395Z,14.10
2023-03-06T16:00:36.191Z,16.40
2023-03-06T16:05:38.355Z,10.32
2023-03-06T16:10:41.866Z,11.05
2023-03-06T16:15:49.075Z,9.88
2023-03-06T16:20:50.568Z,11.32
2023-03-06T16:25:52.103Z,8.90
2023-03-06T16:30:53.575Z,10.55
2023-03-06T16:35:55.014Z,10.30
2023-03-06T16:40:56.476Z,11.63
2023-03-06T16:45:58.282Z,9.93
2023-03-06T16:51:00.097Z,9.52
2023-03-06T16:56:01.576Z,8.85
2023-03-06T17:01:03.123Z,10.98
2023-03-06T17:06:13.511Z,8.73
2023-03-06T17:11:16.003Z,8.90
2023-03-06T17:16:17.719Z,8.75
2023-03-06T17:21:19.310Z,9.15
2023-03-06T17:26:20.845Z,9.45
2023-03-06T17:31:24.832Z,9.82
2023-03-06T17:36:30.834Z,10.23
2023-03-06T17:41:32.342Z,7.68
2023-03-06T17:46:33.878Z,8.02
2023-03-06T17:51:35.438Z,9.40
2023-03-06T17:56:36.958Z,9.75
2023-03-06T18:01:38.509Z,12.55
2023-03-06T18:06:40.004Z,17.05
2023-03-06T18:11:41.550Z,13.85
2023-03-06T18:16:43.168Z,9.50
2023-03-06T18:21:44.719Z,9.15
2023-03-06T18:26:46.192Z,12.93
2023-03-06T18:31:47.750Z,11.73
2023-03-06T18:36:49.237Z,11.35
2023-03-06T18:41:50.748Z,11.10
2023-03-06T18:46:52.255Z,19.20
2023-03-06T18:51:53.912Z,13.73
2023-03-06T18:56:55.430Z,10.95
2023-03-06T19:01:56.936Z,10.05
2023-03-06T19:06:58.467Z,10.73
2023-03-06T19:12:00.455Z,9.90
2023-03-06T19:17:02.299Z,11.23
2023-03-06T19:22:04.087Z,10.38
2023-03-06T19:27:05.615Z,11.35
2023-03-06T19:32:07.265Z,15.88
2023-03-06T19:37:08.883Z,11.07
2023-03-06T19:42:12.815Z,10.18
2023-03-06T19:47:15.203Z,11.70
2023-03-06T19:52:16.821Z,10.20
2023-03-06T19:57:19.288Z,10.20
2023-03-06T20:02:20.836Z,11.02
2023-03-06T20:07:22.373Z,10.50
2023-03-06T20:12:23.841Z,21.85
2023-03-06T20:17:25.440Z,16.35
2023-03-06T20:22:27.178Z,12.23
2023-03-06T20:27:28.642Z,18.70
2023-03-06T20:32:30.227Z,12.52
2023-03-06T20:37:31.830Z,24.00
2023-03-06T20:42:33.364Z,12.07
2023-03-06T20:47:34.890Z,9.75
2023-03-06T20:52:36.413Z,15.20
2023-03-06T20:57:38.133Z,16.50
2023-03-06T21:02:39.603Z,14.82
2023-03-06T21:07:41.095Z,12.90
2023-03-06T21:12:42.544Z,10.57
2023-03-06T21:17:43.994Z,12.35
2023-03-06T21:22:45.502Z,11.40
2023-03-06T21:27:46.993Z,8.77
2023-03-06T21:32:50.843Z,13.82
2023-03-06T21:37:52.318Z,13.32
2023-03-06T21:42:53.797Z,14.00
2023-03-06T21:47:58.922Z,12.77
2023-03-06T21:53:00.385Z,13.40
2023-03-06T21:58:01.845Z,12.90
2023-03-06T22:03:04.178Z,10.60
2023-03-06T22:08:05.710Z,12.18
2023-03-06T22:13:07.232Z,11.00
2023-03-06T22:18:08.668Z,9.45
2023-03-06T22:23:10.148Z,13.10
2023-03-06T22:28:11.609Z,12.00
2023-03-06T22:33:13.144Z,12.90
2023-03-06T22:38:14.600Z,12.25
2023-03-06T22:43:16.111Z,13.18
2023-03-06T22:48:17.552Z,18.00
2023-03-06T22:53:19.046Z,14.32
2023-03-06T22:58:20.506Z,11.50
2023-03-06T23:03:21.951Z,11.27
2023-03-06T23:08:23.436Z,11.95
2023-03-06T23:13:24.887Z,12.00
2023-03-06T23:18:45.261Z,13.80
2023-03-06T23:24:05.923Z,15.18
2023-03-06T23:29:07.444Z,15.75
2023-03-06T23:34:09.704Z,13.68
2023-03-06T23:39:14.114Z,13.23
2023-03-06T23:44:15.670Z,15.88
2023-03-06T23:49:17.161Z,14.38
2023-03-06T23:54:18.661Z,14.95
2023-03-06T23:59:20.147Z,14.23
